createdAt,value
2016-12-13T00:00:30.893Z,0
2016-12-13T00:01:30.908Z,0
2016-12-13T00:02:16.012Z,0
2016-12-13T00:03:16.006Z,0
2016-12-13T00:04:16.023Z,0
2016-12-13T00:05:16.044Z,0
2016-12-13T00:06:30.983Z,0
2016-12-13T00:07:16.069Z,0
2016-12-13T00:08:16.080Z,0
2016-12-13T00:09:16.139Z,0
2016-12-13T00:10:16.107Z,0
2016-12-13T00:11:16.121Z,0
2016-12-13T00:12:16.130Z,0
2016-12-13T00:13:16.146Z,0
2016-12-13T00:15:31.089Z,0
2016-12-13T00:16:16.186Z,0
2016-12-13T00:17:16.513Z,0
2016-12-13T00:18:16.216Z,0
2016-12-13T00:19:31.150Z,0
2016-12-13T00:20:16.242Z,0
2016-12-13T00:21:16.283Z,0
2016-12-13T00:22:16.271Z,0
2016-12-13T00:23:16.284Z,0
2016-12-13T00:24:16.289Z,0
2016-12-13T00:25:16.302Z,0
2016-12-13T00:26:16.323Z,0
2016-12-13T00:27:31.254Z,0
2016-12-13T00:28:31.263Z,0
2016-12-13T00:29:16.352Z,0
2016-12-13T00:30:31.290Z,0
2016-12-13T00:32:16.412Z,0
2016-12-13T00:33:16.411Z,0
2016-12-13T00:34:16.419Z,0
2016-12-13T00:35:16.526Z,0
2016-12-13T00:36:16.455Z,0
2016-12-13T00:37:31.383Z,0
2016-12-13T00:38:16.472Z,0
2016-12-13T00:39:16.492Z,0
2016-12-13T00:40:16.492Z,0
2016-12-13T00:41:16.519Z,0
2016-12-13T00:43:16.540Z,0
2016-12-13T00:44:31.470Z,0
2016-12-13T00:45:16.597Z,0
2016-12-13T00:46:31.501Z,0
2016-12-13T00:47:16.594Z,0
2016-12-13T00:48:16.604Z,0
2016-12-13T00:49:16.614Z,0
2016-12-13T00:50:16.634Z,0
2016-12-13T00:51:16.649Z,0
2016-12-13T00:52:16.662Z,0
2016-12-13T00:53:16.733Z,0
2016-12-13T00:54:16.683Z,0
2016-12-13T00:55:16.691Z,0
2016-12-13T00:56:16.707Z,0
2016-12-13T00:57:16.723Z,0
2016-12-13T00:58:16.731Z,0
2016-12-13T01:00:16.765Z,0
2016-12-13T01:01:16.780Z,0
2016-12-13T01:03:16.803Z,0
2016-12-13T01:04:31.732Z,0
2016-12-13T01:05:16.825Z,0
2016-12-13T01:06:16.835Z,0
2016-12-13T01:07:17.166Z,0
2016-12-13T01:08:16.859Z,0
2016-12-13T01:09:16.890Z,0
2016-12-13T01:10:31.819Z,0
2016-12-13T01:11:31.834Z,0
2016-12-13T01:12:16.921Z,0
2016-12-13T01:13:16.931Z,0
2016-12-13T01:14:16.949Z,0
2016-12-13T01:15:16.952Z,0
2016-12-13T01:16:31.902Z,0
2016-12-13T01:17:16.986Z,0
2016-12-13T01:18:31.920Z,0
2016-12-13T01:19:31.928Z,0
2016-12-13T01:20:17.025Z,0
2016-12-13T01:21:31.962Z,0
2016-12-13T01:23:17.065Z,0
2016-12-13T01:24:17.075Z,0
2016-12-13T01:25:17.091Z,0
2016-12-13T01:26:32.021Z,0
2016-12-13T01:27:17.114Z,0
2016-12-13T01:28:17.133Z,0
2016-12-13T01:29:17.134Z,0
2016-12-13T01:30:17.149Z,0
2016-12-13T01:31:17.211Z,0
2016-12-13T01:32:17.185Z,0
2016-12-13T01:33:32.110Z,0
2016-12-13T01:34:17.212Z,0
2016-12-13T01:35:17.220Z,0
2016-12-13T01:36:17.230Z,0
2016-12-13T01:37:17.240Z,0
2016-12-13T01:38:17.254Z,0
2016-12-13T01:39:17.265Z,0
2016-12-13T01:40:17.278Z,0
2016-12-13T01:41:17.292Z,0
2016-12-13T01:42:17.311Z,0
2016-12-13T01:43:32.240Z,0
2016-12-13T01:44:17.335Z,0
2016-12-13T01:45:17.346Z,0
2016-12-13T01:46:17.358Z,0
2016-12-13T01:47:17.369Z,0
2016-12-13T01:48:17.383Z,0
2016-12-13T01:49:17.398Z,0
2016-12-13T01:50:17.418Z,0
2016-12-13T01:51:32.337Z,0
2016-12-13T01:52:17.445Z,0
2016-12-13T01:53:17.442Z,0
2016-12-13T01:54:17.462Z,0
2016-12-13T01:55:17.487Z,0
2016-12-13T01:56:17.490Z,0
2016-12-13T01:57:17.499Z,0
2016-12-13T01:58:32.436Z,0
2016-12-13T01:59:17.601Z,0
2016-12-13T02:01:17.558Z,0
2016-12-13T02:02:32.489Z,0
2016-12-13T02:03:32.503Z,0
2016-12-13T02:04:17.589Z,0
2016-12-13T02:05:32.584Z,0
2016-12-13T02:06:17.627Z,0
2016-12-13T02:07:17.636Z,0
2016-12-13T02:08:17.688Z,0
2016-12-13T02:09:17.656Z,0
2016-12-13T02:10:17.672Z,0
2016-12-13T02:11:17.705Z,0
2016-12-13T02:12:17.702Z,0
2016-12-13T02:13:17.705Z,0
2016-12-13T02:14:17.719Z,0
2016-12-13T02:15:17.734Z,0
2016-12-13T02:17:17.766Z,0
2016-12-13T02:18:32.688Z,0
2016-12-13T02:19:17.790Z,0
2016-12-13T02:20:17.798Z,0
2016-12-13T02:21:32.734Z,0
2016-12-13T02:22:32.751Z,0
2016-12-13T02:23:17.843Z,0
2016-12-13T02:24:17.848Z,0
2016-12-13T02:25:17.863Z,0
2016-12-13T02:26:17.874Z,0
2016-12-13T02:27:32.821Z,0
2016-12-13T02:28:17.909Z,0
2016-12-13T02:29:17.914Z,0
2016-12-13T02:30:17.920Z,0
2016-12-13T02:31:17.944Z,0
2016-12-13T02:32:18.016Z,0
2016-12-13T02:33:17.962Z,0
2016-12-13T02:34:17.979Z,0
2016-12-13T02:35:17.989Z,0
2016-12-13T02:36:33.231Z,0
2016-12-13T02:37:32.935Z,0
2016-12-13T02:38:18.030Z,0
2016-12-13T02:39:18.042Z,0
2016-12-13T02:40:18.060Z,0
2016-12-13T02:42:18.136Z,0
2016-12-13T02:43:18.090Z,0
2016-12-13T02:44:18.111Z,0
2016-12-13T02:45:18.111Z,0
2016-12-13T02:46:18.130Z,0
2016-12-13T02:47:18.153Z,0
2016-12-13T02:48:18.164Z,0
2016-12-13T02:49:18.176Z,0
2016-12-13T02:50:18.178Z,0
2016-12-13T02:51:33.117Z,0
2016-12-13T02:52:33.132Z,0
2016-12-13T02:53:33.143Z,0
2016-12-13T02:54:18.285Z,0
2016-12-13T02:55:18.242Z,0
2016-12-13T02:56:18.260Z,0
2016-12-13T02:57:18.274Z,0
2016-12-13T02:58:18.292Z,0
2016-12-13T02:59:18.300Z,0
2016-12-13T03:00:18.463Z,0
2016-12-13T03:01:18.326Z,0
2016-12-13T03:02:18.633Z,0
2016-12-13T03:03:18.341Z,0
2016-12-13T03:04:18.374Z,0
2016-12-13T03:05:18.675Z,0
2016-12-13T03:06:33.316Z,0
2016-12-13T03:07:18.408Z,0
2016-12-13T03:08:48.306Z,0
2016-12-13T03:09:18.434Z,0
2016-12-13T03:10:33.360Z,0
2016-12-13T03:11:33.377Z,0
2016-12-13T03:12:33.398Z,0
2016-12-13T03:13:18.478Z,0
2016-12-13T03:14:18.489Z,0
2016-12-13T03:15:33.427Z,0
2016-12-13T03:16:18.522Z,0
2016-12-13T03:17:18.524Z,0
2016-12-13T03:18:18.545Z,0
2016-12-13T03:19:18.553Z,0
2016-12-13T03:20:18.576Z,0
2016-12-13T03:21:33.504Z,0
2016-12-13T03:22:18.589Z,0
2016-12-13T03:23:18.609Z,0
2016-12-13T03:25:18.636Z,0
2016-12-13T03:26:18.647Z,0
2016-12-13T03:27:18.659Z,0
2016-12-13T03:28:18.668Z,0
2016-12-13T03:29:18.683Z,0
2016-12-13T03:30:33.923Z,0
2016-12-13T03:31:18.706Z,0
2016-12-13T03:32:18.727Z,0
2016-12-13T03:33:18.731Z,0
2016-12-13T03:34:18.741Z,0
2016-12-13T03:35:33.732Z,0
2016-12-13T03:36:18.775Z,0
2016-12-13T03:37:33.709Z,0
2016-12-13T03:38:33.724Z,0
2016-12-13T03:39:18.805Z,0
2016-12-13T03:40:33.742Z,0
2016-12-13T03:41:33.757Z,0
2016-12-13T03:42:18.852Z,0
2016-12-13T03:44:18.870Z,0
2016-12-13T03:45:18.884Z,0
2016-12-13T03:46:18.904Z,0
2016-12-13T03:47:18.912Z,0
2016-12-13T03:49:18.968Z,0
2016-12-13T03:50:48.799Z,0
2016-12-13T03:52:18.980Z,0
2016-12-13T03:53:33.905Z,0
2016-12-13T03:55:33.941Z,0
2016-12-13T03:56:33.948Z,0
2016-12-13T03:57:19.041Z,0
2016-12-13T03:58:19.052Z,0
2016-12-13T03:59:19.064Z,0
2016-12-13T04:00:19.076Z,0
2016-12-13T04:01:34.015Z,0
2016-12-13T04:02:19.097Z,0
2016-12-13T04:03:19.117Z,0
2016-12-13T04:04:19.140Z,0
2016-12-13T04:05:19.135Z,0
2016-12-13T04:06:19.158Z,0
2016-12-13T04:07:19.161Z,0
2016-12-13T04:08:19.182Z,0
2016-12-13T04:09:34.212Z,0
2016-12-13T04:10:19.203Z,0
2016-12-13T04:11:19.211Z,0
2016-12-13T04:12:34.151Z,0
2016-12-13T04:13:34.164Z,0
2016-12-13T04:14:19.255Z,0
2016-12-13T04:15:19.271Z,0
2016-12-13T04:16:19.281Z,0
2016-12-13T04:17:19.302Z,0
2016-12-13T04:18:19.317Z,0
2016-12-13T04:19:19.328Z,0
2016-12-13T04:20:19.330Z,0
2016-12-13T04:21:19.356Z,0
2016-12-13T04:22:19.356Z,0
2016-12-13T04:23:19.373Z,0
2016-12-13T04:24:19.389Z,0
2016-12-13T04:25:19.411Z,0
2016-12-13T04:26:34.328Z,0
2016-12-13T04:27:34.348Z,0
2016-12-13T04:28:34.368Z,0
2016-12-13T04:29:19.767Z,0
2016-12-13T04:30:19.464Z,0
2016-12-13T04:31:19.477Z,0
2016-12-13T04:33:19.509Z,0
2016-12-13T04:34:19.518Z,0
2016-12-13T04:35:19.530Z,0
2016-12-13T04:36:19.544Z,0
2016-12-13T04:37:34.478Z,0
2016-12-13T04:38:19.568Z,0
2016-12-13T04:39:19.587Z,0
2016-12-13T04:40:19.600Z,0
2016-12-13T04:41:19.614Z,0
2016-12-13T04:43:34.563Z,0
2016-12-13T04:44:19.653Z,0
2016-12-13T04:45:49.507Z,0
2016-12-13T04:46:19.686Z,0
2016-12-13T04:47:19.996Z,0
2016-12-13T04:48:19.706Z,0
2016-12-13T04:49:19.719Z,0
2016-12-13T04:50:19.730Z,0
2016-12-13T04:51:34.669Z,0
2016-12-13T04:52:19.762Z,0
2016-12-13T04:53:19.780Z,0
2016-12-13T04:54:19.787Z,0
2016-12-13T04:55:19.799Z,0
2016-12-13T04:56:19.867Z,0
2016-12-13T04:57:19.835Z,0
2016-12-13T04:58:19.847Z,0
2016-12-13T04:59:34.775Z,0
2016-12-13T05:00:19.895Z,0
2016-12-13T05:01:34.802Z,0
2016-12-13T05:02:19.896Z,0
2016-12-13T05:03:19.912Z,0
2016-12-13T05:04:34.837Z,0
2016-12-13T05:05:19.988Z,0
2016-12-13T05:06:19.952Z,0
2016-12-13T05:07:19.970Z,0
2016-12-13T05:08:19.979Z,0
2016-12-13T05:09:19.991Z,0
2016-12-13T05:10:20.003Z,0
2016-12-13T05:11:20.021Z,0
2016-12-13T05:12:20.036Z,0
2016-12-13T05:13:20.068Z,0
2016-12-13T05:14:20.059Z,0
2016-12-13T05:15:34.993Z,0
2016-12-13T05:16:34.999Z,0
2016-12-13T05:17:35.019Z,0
2016-12-13T05:18:20.121Z,0
2016-12-13T05:19:20.129Z,0
2016-12-13T05:20:35.085Z,0
2016-12-13T05:21:20.150Z,0
2016-12-13T05:22:35.087Z,0
2016-12-13T05:23:20.175Z,0
2016-12-13T05:24:20.192Z,0
2016-12-13T05:25:20.209Z,0
2016-12-13T05:26:35.140Z,0
2016-12-13T05:27:20.249Z,0
2016-12-13T05:28:20.241Z,0
2016-12-13T05:29:20.250Z,0
2016-12-13T05:30:20.278Z,0
2016-12-13T05:31:50.131Z,0
2016-12-13T05:32:20.302Z,0
2016-12-13T05:33:35.231Z,0
2016-12-13T05:34:20.335Z,0
2016-12-13T05:35:20.333Z,0
2016-12-13T05:36:20.344Z,0
2016-12-13T05:37:20.362Z,0
2016-12-13T05:38:20.385Z,0
2016-12-13T05:39:20.390Z,0
2016-12-13T05:40:20.400Z,0
2016-12-13T05:41:20.419Z,0
2016-12-13T05:42:20.743Z,0
2016-12-13T05:43:20.455Z,0
2016-12-13T05:45:20.476Z,0
2016-12-13T05:46:20.491Z,0
2016-12-13T05:47:35.427Z,0
2016-12-13T05:48:20.514Z,0
2016-12-13T05:49:20.533Z,0
2016-12-13T05:50:35.470Z,0
2016-12-13T05:51:20.556Z,0
2016-12-13T05:52:35.488Z,0
2016-12-13T05:53:20.583Z,0
2016-12-13T05:54:20.595Z,0
2016-12-13T05:55:20.605Z,0
2016-12-13T05:56:20.627Z,0
2016-12-13T05:57:35.555Z,0
2016-12-13T05:58:20.649Z,0
2016-12-13T05:59:20.669Z,0
2016-12-13T06:00:35.601Z,0
2016-12-13T06:01:20.696Z,0
2016-12-13T06:02:35.625Z,0
2016-12-13T06:03:35.646Z,0
2016-12-13T06:04:20.736Z,0
2016-12-13T06:05:20.743Z,0
2016-12-13T06:06:20.764Z,0
2016-12-13T06:07:20.778Z,0
2016-12-13T06:08:35.710Z,0
2016-12-13T06:09:20.801Z,0
2016-12-13T06:11:20.831Z,0
2016-12-13T06:12:35.761Z,0
2016-12-13T06:13:35.774Z,0
2016-12-13T06:14:20.922Z,0
2016-12-13T06:15:20.879Z,0
2016-12-13T06:16:35.816Z,0
2016-12-13T06:17:20.944Z,0
2016-12-13T06:18:35.846Z,0
2016-12-13T06:19:20.939Z,0
2016-12-13T06:20:21.005Z,0
2016-12-13T06:21:20.967Z,0
2016-12-13T06:22:21.033Z,0
2016-12-13T06:23:35.919Z,0
2016-12-13T06:24:36.236Z,0
2016-12-13T06:25:21.030Z,0
2016-12-13T06:26:21.041Z,0
2016-12-13T06:27:21.049Z,0
2016-12-13T06:28:21.066Z,0
2016-12-13T06:29:21.119Z,0
2016-12-13T06:30:21.085Z,0
2016-12-13T06:31:21.102Z,0
2016-12-13T06:32:21.127Z,0
2016-12-13T06:33:21.136Z,0
2016-12-13T06:34:21.143Z,0
2016-12-13T06:35:21.205Z,0
2016-12-13T06:36:36.101Z,0
2016-12-13T06:37:21.218Z,0
2016-12-13T06:38:21.507Z,0
2016-12-13T06:39:21.212Z,0
2016-12-13T06:40:21.240Z,0
2016-12-13T06:41:21.545Z,0
2016-12-13T06:42:21.257Z,0
2016-12-13T06:43:36.495Z,0
2016-12-13T06:44:21.586Z,0
2016-12-13T06:46:21.308Z,0
2016-12-13T06:47:36.248Z,0
2016-12-13T06:48:21.343Z,0
2016-12-13T06:50:36.288Z,0
2016-12-13T06:51:36.299Z,0
2016-12-13T06:52:21.395Z,0
2016-12-13T06:53:21.415Z,0
2016-12-13T06:54:21.421Z,0
2016-12-13T06:55:21.427Z,0
2016-12-13T06:56:21.449Z,0
2016-12-13T06:57:21.464Z,0
2016-12-13T06:58:21.790Z,0
2016-12-13T06:59:21.490Z,0
2016-12-13T07:00:36.422Z,0
2016-12-13T07:01:21.514Z,0
2016-12-13T07:02:21.532Z,0
2016-12-13T07:03:36.775Z,0
2016-12-13T07:04:21.558Z,0
2016-12-13T07:05:36.495Z,0
2016-12-13T07:06:36.510Z,0
2016-12-13T07:07:21.607Z,0
2016-12-13T07:08:21.613Z,0
2016-12-13T07:09:21.627Z,0
2016-12-13T07:10:21.649Z,0
2016-12-13T07:11:21.665Z,0
2016-12-13T07:12:36.593Z,0
2016-12-13T07:13:36.606Z,0
2016-12-13T07:14:21.700Z,0
2016-12-13T07:16:21.735Z,0
2016-12-13T07:17:21.745Z,0
2016-12-13T07:18:21.750Z,0
2016-12-13T07:19:21.771Z,0
2016-12-13T07:20:21.787Z,0
2016-12-13T07:21:21.798Z,5
2016-12-13T07:22:51.656Z,5
2016-12-13T07:23:21.824Z,5
2016-12-13T07:25:21.854Z,5
2016-12-13T07:26:21.873Z,5
2016-12-13T07:27:36.806Z,5
2016-12-13T07:28:36.826Z,5
2016-12-13T07:29:36.831Z,5
2016-12-13T07:30:36.845Z,5
2016-12-13T07:31:21.936Z,5
2016-12-13T07:33:36.931Z,5
2016-12-13T07:34:21.977Z,5
2016-12-13T07:35:21.987Z,5
2016-12-13T07:36:22.012Z,5
2016-12-13T07:37:51.864Z,5
2016-12-13T07:38:36.955Z,5
2016-12-13T07:39:22.043Z,5
2016-12-13T07:40:22.056Z,5
2016-12-13T07:41:37.003Z,5
2016-12-13T07:42:22.141Z,5
2016-12-13T07:43:22.108Z,5
2016-12-13T07:44:22.122Z,10
2016-12-13T07:45:22.135Z,10
2016-12-13T07:46:22.149Z,5
2016-12-13T07:47:37.082Z,10
2016-12-13T07:48:22.182Z,10
2016-12-13T07:49:22.195Z,10
2016-12-13T07:50:22.249Z,10
2016-12-13T07:51:37.134Z,5
2016-12-13T07:52:37.150Z,5
2016-12-13T07:53:37.176Z,5
2016-12-13T07:54:22.253Z,5
2016-12-13T07:55:37.194Z,10
2016-12-13T07:56:37.216Z,10
2016-12-13T07:57:22.308Z,10
2016-12-13T07:58:22.323Z,10
2016-12-13T07:59:22.333Z,10
2016-12-13T08:00:37.272Z,10
2016-12-13T08:02:37.300Z,10
2016-12-13T08:03:22.383Z,10
2016-12-13T08:04:22.401Z,10
2016-12-13T08:05:22.413Z,10
2016-12-13T08:06:22.477Z,10
2016-12-13T08:07:37.366Z,10
2016-12-13T08:08:22.464Z,10
2016-12-13T08:09:37.387Z,10
2016-12-13T08:10:37.410Z,10
2016-12-13T08:11:22.506Z,10
2016-12-13T08:12:22.518Z,10
2016-12-13T08:13:37.454Z,10
2016-12-13T08:14:37.468Z,15
2016-12-13T08:15:22.556Z,15
2016-12-13T08:16:22.575Z,15
2016-12-13T08:17:22.585Z,15
2016-12-13T08:18:22.606Z,15
2016-12-13T08:19:37.534Z,15
2016-12-13T08:20:22.635Z,15
2016-12-13T08:21:22.645Z,15
2016-12-13T08:22:22.662Z,15
2016-12-13T08:24:22.685Z,15
2016-12-13T08:25:37.620Z,15
2016-12-13T08:26:37.634Z,15
2016-12-13T08:27:22.729Z,15
2016-12-13T08:28:22.744Z,20
2016-12-13T08:29:22.762Z,20
2016-12-13T08:30:22.778Z,15
2016-12-13T08:31:22.788Z,15
2016-12-13T08:32:22.805Z,15
2016-12-13T08:33:22.864Z,15
2016-12-13T08:34:22.831Z,15
2016-12-13T08:35:22.844Z,15
2016-12-13T08:36:22.853Z,15
2016-12-13T08:37:22.871Z,15
2016-12-13T08:38:22.890Z,15
2016-12-13T08:39:37.820Z,15
2016-12-13T08:40:22.919Z,20
2016-12-13T08:41:37.849Z,20
2016-12-13T08:42:22.952Z,20
2016-12-13T08:43:22.957Z,20
2016-12-13T08:44:22.973Z,20
2016-12-13T08:45:37.910Z,20
2016-12-13T08:46:23.000Z,20
2016-12-13T08:47:38.234Z,20
2016-12-13T08:48:23.341Z,20
2016-12-13T08:49:23.043Z,20
2016-12-13T08:50:23.065Z,20
2016-12-13T08:51:23.074Z,20
2016-12-13T08:52:23.089Z,20
2016-12-13T08:53:23.109Z,20
2016-12-13T08:54:23.115Z,20
2016-12-13T08:55:23.158Z,20
2016-12-13T08:56:23.146Z,20
2016-12-13T08:57:38.078Z,20
2016-12-13T08:58:23.233Z,20
2016-12-13T08:59:23.201Z,20
2016-12-13T09:00:23.407Z,20
2016-12-13T09:01:23.227Z,20
2016-12-13T09:02:23.234Z,25
2016-12-13T09:03:23.247Z,25
2016-12-13T09:04:23.265Z,25
2016-12-13T09:05:38.201Z,25
2016-12-13T09:06:23.294Z,25
2016-12-13T09:07:23.305Z,25
2016-12-13T09:08:38.241Z,25
2016-12-13T09:09:38.254Z,25
2016-12-13T09:10:23.368Z,25
2016-12-13T09:11:23.368Z,25
2016-12-13T09:12:23.375Z,25
2016-12-13T09:13:53.242Z,25
2016-12-13T09:14:23.411Z,25
2016-12-13T09:15:23.428Z,25
2016-12-13T09:16:23.452Z,25
2016-12-13T09:17:23.458Z,25
2016-12-13T09:18:38.392Z,25
2016-12-13T09:19:23.488Z,30
2016-12-13T09:20:23.536Z,30
2016-12-13T09:21:23.822Z,30
2016-12-13T09:22:38.455Z,30
2016-12-13T09:23:23.544Z,30
2016-12-13T09:24:38.477Z,30
2016-12-13T09:26:23.586Z,35
2016-12-13T09:27:23.604Z,35
2016-12-13T09:28:38.536Z,35
2016-12-13T09:29:38.552Z,35
2016-12-13T09:30:23.650Z,35
2016-12-13T09:31:38.638Z,35
2016-12-13T09:32:23.726Z,35
2016-12-13T09:33:23.692Z,35
2016-12-13T09:34:38.631Z,30
2016-12-13T09:35:23.766Z,30
2016-12-13T09:36:23.734Z,35
2016-12-13T09:37:23.746Z,35
2016-12-13T09:38:23.764Z,35
2016-12-13T09:39:23.780Z,35
2016-12-13T09:40:23.803Z,40
2016-12-13T09:41:23.822Z,40
2016-12-13T09:42:23.822Z,45
2016-12-13T09:43:23.851Z,45
2016-12-13T09:44:23.859Z,45
2016-12-13T09:45:23.882Z,45
2016-12-13T09:46:23.887Z,45
2016-12-13T09:47:38.828Z,45
2016-12-13T09:48:23.922Z,50
2016-12-13T09:49:23.937Z,50
2016-12-13T09:50:38.868Z,50
2016-12-13T09:51:23.964Z,50
2016-12-13T09:52:24.290Z,50
2016-12-13T09:53:23.991Z,45
2016-12-13T09:54:24.017Z,45
2016-12-13T09:55:24.031Z,50
2016-12-13T09:56:25.305Z,50
2016-12-13T09:57:38.969Z,50
2016-12-13T09:58:24.084Z,50
2016-12-13T09:59:38.999Z,50
2016-12-13T10:00:39.018Z,50
2016-12-13T10:01:34.557Z,50
2016-12-13T10:02:24.138Z,50
2016-12-13T10:03:24.144Z,50
2016-12-13T10:04:39.133Z,50
2016-12-13T10:05:24.179Z,50
2016-12-13T10:06:24.192Z,50
2016-12-13T10:07:24.204Z,50
2016-12-13T10:08:24.227Z,50
2016-12-13T10:09:24.240Z,50
2016-12-13T10:10:39.170Z,50
2016-12-13T10:11:24.263Z,50
2016-12-13T10:12:39.205Z,50
2016-12-13T10:13:24.329Z,50
2016-12-13T10:14:24.345Z,50
2016-12-13T10:15:24.333Z,50
2016-12-13T10:16:39.268Z,50
2016-12-13T10:17:39.287Z,50
2016-12-13T10:18:24.375Z,50
2016-12-13T10:19:24.400Z,50
2016-12-13T10:20:24.410Z,50
2016-12-13T10:21:24.422Z,50
2016-12-13T10:22:24.773Z,50
2016-12-13T10:23:24.453Z,50
2016-12-13T10:24:24.472Z,50
2016-12-13T10:25:24.484Z,50
2016-12-13T10:26:24.497Z,50
2016-12-13T10:27:24.511Z,50
2016-12-13T10:28:24.539Z,50
2016-12-13T10:29:39.527Z,50
2016-12-13T10:30:24.612Z,50
2016-12-13T10:31:24.579Z,50
2016-12-13T10:32:39.522Z,50
2016-12-13T10:33:39.529Z,50
2016-12-13T10:34:24.630Z,50
2016-12-13T10:35:24.640Z,50
2016-12-13T10:36:39.589Z,50
2016-12-13T10:37:24.677Z,50
2016-12-13T10:38:24.788Z,50
2016-12-13T10:39:25.104Z,50
2016-12-13T10:40:25.275Z,50
2016-12-13T10:41:24.837Z,50
2016-12-13T10:42:24.848Z,50
2016-12-13T10:43:25.318Z,50
2016-12-13T10:44:39.703Z,50
2016-12-13T10:45:41.322Z,50
2016-12-13T10:46:25.260Z,50
2016-12-13T10:47:24.838Z,50
2016-12-13T10:48:39.768Z,50
2016-12-13T10:49:26.472Z,50
2016-12-13T10:50:25.177Z,50
2016-12-13T10:51:24.891Z,50
2016-12-13T10:52:24.963Z,50
2016-12-13T10:54:24.938Z,50
2016-12-13T10:55:25.009Z,50
2016-12-13T10:56:24.978Z,50
2016-12-13T10:57:24.987Z,50
2016-12-13T10:58:25.001Z,45
2016-12-13T10:59:25.031Z,45
2016-12-13T11:00:40.015Z,45
2016-12-13T11:01:40.024Z,45
2016-12-13T11:03:54.929Z,45
2016-12-13T11:04:40.028Z,40
2016-12-13T11:05:40.046Z,40
2016-12-13T11:06:40.062Z,40
2016-12-13T11:07:25.152Z,40
2016-12-13T11:08:25.220Z,40
2016-12-13T11:09:40.106Z,45
2016-12-13T11:10:25.208Z,45
2016-12-13T11:11:25.223Z,45
2016-12-13T11:12:25.233Z,45
2016-12-13T11:13:25.241Z,45
2016-12-13T11:14:25.261Z,45
2016-12-13T11:15:25.284Z,45
2016-12-13T11:16:25.294Z,40
2016-12-13T11:17:25.316Z,40
2016-12-13T11:18:25.324Z,40
2016-12-13T11:19:25.348Z,40
2016-12-13T11:20:25.360Z,40
2016-12-13T11:21:25.380Z,40
2016-12-13T11:22:25.397Z,40
2016-12-13T11:23:25.703Z,35
2016-12-13T11:24:40.349Z,35
2016-12-13T11:25:25.438Z,35
2016-12-13T11:26:25.455Z,35
2016-12-13T11:27:25.464Z,35
2016-12-13T11:28:25.490Z,35
2016-12-13T11:29:40.434Z,35
2016-12-13T11:30:40.450Z,35
2016-12-13T11:31:25.539Z,35
2016-12-13T11:32:25.546Z,35
2016-12-13T11:34:25.575Z,35
2016-12-13T11:35:40.527Z,35
2016-12-13T11:36:25.614Z,35
2016-12-13T11:37:25.642Z,35
2016-12-13T11:38:25.653Z,35
2016-12-13T11:39:25.662Z,35
2016-12-13T11:40:25.694Z,35
2016-12-13T11:41:25.697Z,35
2016-12-13T11:42:25.710Z,40
2016-12-13T11:43:25.731Z,40
2016-12-13T11:44:25.738Z,40
2016-12-13T11:45:40.688Z,40
2016-12-13T11:46:25.781Z,40
2016-12-13T11:47:25.803Z,40
2016-12-13T11:48:25.818Z,40
2016-12-13T11:49:40.747Z,40
2016-12-13T11:50:40.762Z,45
2016-12-13T11:51:40.782Z,45
2016-12-13T11:52:25.874Z,45
2016-12-13T11:53:25.896Z,45
2016-12-13T11:55:26.245Z,45
2016-12-13T11:56:25.944Z,45
2016-12-13T11:57:25.964Z,45
2016-12-13T11:58:40.895Z,45
2016-12-13T11:59:25.987Z,45
2016-12-13T12:00:26.003Z,50
2016-12-13T12:01:26.032Z,50
2016-12-13T12:02:26.038Z,50
2016-12-13T12:04:26.070Z,50
2016-12-13T12:05:41.009Z,50
2016-12-13T12:06:26.107Z,50
2016-12-13T12:07:41.047Z,50
2016-12-13T12:08:26.129Z,50
2016-12-13T12:09:26.410Z,50
2016-12-13T12:10:26.173Z,50
2016-12-13T12:12:26.456Z,50
2016-12-13T12:13:26.219Z,50
2016-12-13T12:14:26.662Z,50
2016-12-13T12:15:26.298Z,50
2016-12-13T12:16:26.277Z,50
2016-12-13T12:17:26.285Z,50
2016-12-13T12:18:26.315Z,45
2016-12-13T12:19:41.236Z,45
2016-12-13T12:20:41.260Z,45
2016-12-13T12:21:26.351Z,45
2016-12-13T12:22:41.293Z,45
2016-12-13T12:23:41.301Z,45
2016-12-13T12:24:26.405Z,45
2016-12-13T12:25:26.522Z,45
2016-12-13T12:26:26.479Z,45
2016-12-13T12:27:26.484Z,45
2016-12-13T12:28:26.571Z,45
2016-12-13T12:30:26.610Z,40
2016-12-13T12:31:41.440Z,40
2016-12-13T12:32:26.539Z,40
2016-12-13T12:33:26.714Z,40
2016-12-13T12:34:41.498Z,40
2016-12-13T12:35:41.616Z,35
2016-12-13T12:36:26.700Z,35
2016-12-13T12:37:26.636Z,35
2016-12-13T12:38:41.554Z,35
2016-12-13T12:39:26.658Z,35
2016-12-13T12:40:26.676Z,35
2016-12-13T12:41:26.680Z,35
2016-12-13T12:43:26.870Z,35
2016-12-13T12:44:27.092Z,35
2016-12-13T12:45:27.063Z,35
2016-12-13T12:46:26.870Z,35
2016-12-13T12:47:41.708Z,35
2016-12-13T12:48:26.810Z,35
2016-12-13T12:49:41.748Z,35
2016-12-13T12:50:41.761Z,35
2016-12-13T12:51:41.809Z,35
2016-12-13T12:52:26.923Z,40
2016-12-13T12:53:26.881Z,40
2016-12-13T12:54:26.907Z,40
2016-12-13T12:55:27.065Z,40
2016-12-13T12:56:27.039Z,40
2016-12-13T12:57:27.149Z,40
2016-12-13T12:58:27.020Z,40
2016-12-13T12:59:26.989Z,40
2016-12-13T13:00:27.052Z,40
2016-12-13T13:01:42.040Z,40
2016-12-13T13:02:27.042Z,40
2016-12-13T13:03:27.426Z,40
2016-12-13T13:04:27.068Z,40
2016-12-13T13:05:27.085Z,40
2016-12-13T13:07:42.140Z,35
2016-12-13T13:09:27.259Z,35
2016-12-13T13:10:57.016Z,30
2016-12-13T13:12:27.221Z,30
2016-12-13T13:13:27.549Z,30
2016-12-13T13:14:42.156Z,30
2016-12-13T13:15:27.562Z,30
2016-12-13T13:16:27.279Z,30
2016-12-13T13:17:27.447Z,30
2016-12-13T13:18:27.304Z,30
2016-12-13T13:19:27.326Z,25
2016-12-13T13:20:27.338Z,25
2016-12-13T13:21:42.276Z,25
2016-12-13T13:22:57.224Z,25
2016-12-13T13:23:27.387Z,25
2016-12-13T13:24:42.325Z,25
2016-12-13T13:25:42.397Z,25
2016-12-13T13:26:42.364Z,25
2016-12-13T13:27:27.461Z,25
2016-12-13T13:29:27.485Z,25
2016-12-13T13:30:42.432Z,25
2016-12-13T13:31:27.569Z,25
2016-12-13T13:32:29.594Z,25
2016-12-13T13:33:27.706Z,25
2016-12-13T13:34:29.785Z,25
2016-12-13T13:35:27.641Z,25
2016-12-13T13:36:28.107Z,25
2016-12-13T13:37:42.597Z,25
2016-12-13T13:38:42.669Z,25
2016-12-13T13:39:27.669Z,25
2016-12-13T13:40:30.133Z,25
2016-12-13T13:41:29.050Z,25
2016-12-13T13:42:42.635Z,25
2016-12-13T13:43:29.478Z,25
2016-12-13T13:44:42.912Z,25
2016-12-13T13:45:27.857Z,20
2016-12-13T13:46:27.776Z,20
2016-12-13T13:47:28.245Z,20
2016-12-13T13:48:43.037Z,20
2016-12-13T13:49:27.939Z,20
2016-12-13T13:50:27.902Z,20
2016-12-13T13:51:27.905Z,20
2016-12-13T13:52:28.074Z,20
2016-12-13T13:53:27.894Z,20
2016-12-13T13:54:30.413Z,20
2016-12-13T13:55:27.982Z,20
2016-12-13T13:56:28.224Z,20
2016-12-13T13:57:28.012Z,20
2016-12-13T13:58:42.959Z,20
2016-12-13T13:59:28.998Z,20
2016-12-13T14:00:28.005Z,20
2016-12-13T14:01:43.908Z,15
2016-12-13T14:02:28.346Z,15
2016-12-13T14:03:42.988Z,15
2016-12-13T14:04:28.431Z,15
2016-12-13T14:05:28.405Z,15
2016-12-13T14:06:29.811Z,15
2016-12-13T14:07:28.426Z,15
2016-12-13T14:08:43.118Z,15
2016-12-13T14:09:43.136Z,15
2016-12-13T14:11:28.895Z,15
2016-12-13T14:12:28.816Z,15
2016-12-13T14:13:43.963Z,10
2016-12-13T14:14:28.501Z,10
2016-12-13T14:15:28.826Z,10
2016-12-13T14:16:28.482Z,10
2016-12-13T14:18:29.365Z,10
2016-12-13T14:19:28.434Z,10
2016-12-13T14:20:44.077Z,10
2016-12-13T14:21:29.509Z,10
2016-12-13T14:22:28.433Z,10
2016-12-13T14:23:29.045Z,10
2016-12-13T14:24:28.442Z,5
2016-12-13T14:25:28.792Z,5
2016-12-13T14:26:28.608Z,5
2016-12-13T14:27:29.852Z,5
2016-12-13T14:28:29.508Z,5
2016-12-13T14:29:28.898Z,5
2016-12-13T14:30:44.643Z,5
2016-12-13T14:31:28.640Z,5
2016-12-13T14:32:28.897Z,5
2016-12-13T14:33:29.013Z,5
2016-12-13T14:35:29.146Z,5
2016-12-13T14:36:28.658Z,5
2016-12-13T14:37:28.626Z,5
2016-12-13T14:38:43.564Z,5
2016-12-13T14:39:28.656Z,5
2016-12-13T14:40:28.678Z,0
2016-12-13T14:41:43.619Z,0
2016-12-13T14:42:43.639Z,0
2016-12-13T14:43:28.723Z,0
2016-12-13T14:44:28.741Z,0
2016-12-13T14:45:43.682Z,0
2016-12-13T14:46:28.778Z,0
2016-12-13T14:47:28.795Z,0
2016-12-13T14:48:28.818Z,0
2016-12-13T14:49:28.831Z,0
2016-12-13T14:50:28.834Z,0
2016-12-13T14:51:28.857Z,0
2016-12-13T14:52:43.795Z,0
2016-12-13T14:53:28.894Z,0
2016-12-13T14:54:28.907Z,0
2016-12-13T14:55:43.840Z,0
2016-12-13T14:56:28.948Z,0
2016-12-13T14:57:28.954Z,0
2016-12-13T14:58:43.893Z,0
2016-12-13T14:59:28.982Z,0
2016-12-13T15:00:29.103Z,0
2016-12-13T15:01:43.936Z,0
2016-12-13T15:02:29.039Z,0
2016-12-13T15:03:43.999Z,0
2016-12-13T15:04:29.077Z,0
2016-12-13T15:05:29.109Z,0
2016-12-13T15:06:29.104Z,0
2016-12-13T15:07:29.121Z,0
2016-12-13T15:08:29.437Z,0
2016-12-13T15:09:29.175Z,0
2016-12-13T15:10:29.165Z,0
2016-12-13T15:11:29.179Z,0
2016-12-13T15:12:29.202Z,0
2016-12-13T15:13:29.213Z,0
2016-12-13T15:14:29.232Z,0